createdAt,value
2018-05-14T00:02:22.702Z,99584.06
2018-05-14T00:04:51.026Z,99583.33
2018-05-14T00:07:19.515Z,99580.63
2018-05-14T00:09:47.895Z,99578.28
2018-05-14T00:12:16.320Z,99579.93
2018-05-14T00:14:44.651Z,99577.63
2018-05-14T00:17:12.980Z,99574.06
2018-05-14T00:19:41.364Z,99574.42
2018-05-14T00:22:09.768Z,99577.83
2018-05-14T00:24:38.088Z,99577.83
2018-05-14T00:27:06.407Z,99574.91
2018-05-14T00:29:34.725Z,99571.72
2018-05-14T00:32:03.120Z,99575.67
2018-05-14T00:34:31.442Z,99577.59
2018-05-14T00:36:59.771Z,99578.68
2018-05-14T00:39:28.112Z,99578.69
2018-05-14T00:41:56.447Z,99577.20
2018-05-14T00:44:24.768Z,99584.66
2018-05-14T00:46:53.540Z,99580.78
2018-05-14T00:49:21.897Z,99584.92
2018-05-14T00:51:50.279Z,99575.00
2018-05-14T00:54:18.661Z,99574.45
2018-05-14T00:56:46.977Z,99571.61
2018-05-14T00:59:15.387Z,99579.23
2018-05-14T01:01:43.691Z,99574.48
2018-05-14T01:04:12.035Z,99577.72
2018-05-14T01:06:40.591Z,99577.50
2018-05-14T01:09:09.018Z,99574.80
2018-05-14T01:11:37.364Z,99572.84
2018-05-14T01:14:05.680Z,99574.63
2018-05-14T01:16:34.044Z,99570.98
2018-05-14T01:19:02.382Z,99572.89
2018-05-14T01:21:30.711Z,99579.09
2018-05-14T01:23:59.061Z,99577.02
2018-05-14T01:26:27.575Z,99581.14
2018-05-14T01:29:09.009Z,99581.53
2018-05-14T01:31:39.593Z,99582.34
2018-05-14T01:34:08.043Z,99582.48
2018-05-14T01:36:36.376Z,99583.30
2018-05-14T01:39:04.801Z,99581.24
2018-05-14T01:41:33.120Z,99575.45
2018-05-14T01:44:01.457Z,99574.70
2018-05-14T01:46:39.791Z,99580.52
2018-05-14T01:49:10.331Z,99576.95
2018-05-14T01:51:38.647Z,99581.77
2018-05-14T01:54:07.038Z,99585.01
2018-05-14T01:56:35.367Z,99580.72
2018-05-14T01:59:03.695Z,99584.60
2018-05-14T02:01:32.203Z,99592.30
2018-05-14T02:04:00.538Z,99585.71
2018-05-14T02:06:28.982Z,99580.41
2018-05-14T02:08:57.325Z,99578.27
2018-05-14T02:11:25.680Z,99574.92
2018-05-14T02:13:54.052Z,99573.39
2018-05-14T02:16:22.371Z,99569.51
2018-05-14T02:18:50.718Z,99580.36
2018-05-14T02:21:19.241Z,99578.62
2018-05-14T02:23:48.036Z,99574.50
2018-05-14T02:26:16.362Z,99569.67
2018-05-14T02:31:23.749Z,99570.08
2018-05-14T02:33:52.082Z,99572.22
2018-05-14T02:36:20.411Z,99569.59
2018-05-14T02:38:48.745Z,99567.13
2018-05-14T02:41:18.198Z,99568.55
2018-05-14T02:43:46.543Z,99575.58
2018-05-14T02:46:14.927Z,99574.45
2018-05-14T02:48:43.269Z,99577.70
2018-05-14T02:51:11.587Z,99571.12
2018-05-14T02:53:39.930Z,99577.81
2018-05-14T02:56:08.422Z,99573.98
2018-05-14T02:58:36.753Z,99580.57
2018-05-14T03:01:05.081Z,99579.04
2018-05-14T03:03:33.555Z,99583.84
2018-05-14T03:06:01.930Z,99581.52
2018-05-14T03:08:30.256Z,99591.08
2018-05-14T03:10:58.607Z,99575.95
2018-05-14T03:13:26.920Z,99579.56
2018-05-14T03:15:55.259Z,99585.67
2018-05-14T03:18:23.597Z,99580.36
2018-05-14T03:20:52.625Z,99584.34
2018-05-14T03:23:21.188Z,99590.87
2018-05-14T03:25:49.775Z,99586.61
2018-05-14T03:28:18.105Z,99591.53
2018-05-14T03:30:48.217Z,99586.47
2018-05-14T03:33:16.569Z,99590.58
2018-05-14T03:35:44.894Z,99595.56
2018-05-14T03:38:13.527Z,99594.69
2018-05-14T03:40:41.896Z,99591.99
2018-05-14T03:43:10.552Z,99594.12
2018-05-14T03:45:38.892Z,99603.08
2018-05-14T03:48:07.264Z,99607.54
2018-05-14T03:50:36.427Z,99606.81
2018-05-14T03:53:04.752Z,99610.76
2018-05-14T03:55:33.059Z,99607.67
2018-05-14T03:58:01.364Z,99601.50
2018-05-14T04:00:41.711Z,99604.42
2018-05-14T04:03:21.989Z,99609.88
2018-05-14T04:06:02.382Z,99606.81
2018-05-14T04:08:30.771Z,99610.42
2018-05-14T04:10:59.234Z,99607.54
2018-05-14T04:13:27.668Z,99611.11
2018-05-14T04:15:56.046Z,99616.52
2018-05-14T04:18:24.387Z,99615.66
2018-05-14T04:20:52.709Z,99619.84
2018-05-14T04:23:21.140Z,99624.41
2018-05-14T04:25:49.488Z,99614.16
2018-05-14T04:28:17.830Z,99607.47
2018-05-14T04:30:46.242Z,99608.77
2018-05-14T04:33:14.585Z,99613.53
2018-05-14T04:35:42.887Z,99620.28
2018-05-14T04:38:11.228Z,99624.41
2018-05-14T04:40:39.674Z,99620.16
2018-05-14T04:43:08.024Z,99616.62
2018-05-14T04:45:36.457Z,99623.77
2018-05-14T04:48:04.847Z,99626.02
2018-05-14T04:50:33.219Z,99625.39
2018-05-14T04:53:01.629Z,99625.78
2018-05-14T04:55:30.036Z,99626.84
2018-05-14T04:57:58.375Z,99624.20
2018-05-14T05:00:26.690Z,99626.74
2018-05-14T05:02:55.899Z,99622.17
2018-05-14T05:05:24.237Z,99626.45
2018-05-14T05:07:52.603Z,99630.23
2018-05-14T05:10:20.967Z,99629.56
2018-05-14T05:12:49.305Z,99622.04
2018-05-14T05:15:17.669Z,99625.98
2018-05-14T05:17:46.075Z,99621.55
2018-05-14T05:20:14.451Z,99637.81
2018-05-14T05:22:42.799Z,99632.00
2018-05-14T05:25:11.170Z,99633.92
2018-05-14T05:27:39.555Z,99629.76
2018-05-14T05:30:07.884Z,99640.70
2018-05-14T05:32:36.216Z,99630.76
2018-05-14T05:35:04.548Z,99630.55
2018-05-14T05:37:32.872Z,99628.88
2018-05-14T05:40:01.209Z,99639.09
2018-05-14T05:42:29.610Z,99633.66
2018-05-14T05:44:57.934Z,99634.11
2018-05-14T05:47:26.267Z,99631.55
2018-05-14T05:49:54.647Z,99628.69
2018-05-14T05:52:22.996Z,99618.95
2018-05-14T05:54:51.315Z,99622.36
2018-05-14T05:57:19.743Z,99621.24
2018-05-14T05:59:48.085Z,99616.95
2018-05-14T06:02:16.538Z,99620.09
2018-05-14T06:04:44.876Z,99612.37
2018-05-14T06:07:13.214Z,99609.11
2018-05-14T06:09:41.595Z,99600.05
2018-05-14T06:12:09.942Z,99607.30
2018-05-14T06:14:38.276Z,99607.36
2018-05-14T06:17:06.668Z,99609.38
2018-05-14T06:19:35.063Z,99605.97
2018-05-14T06:22:03.549Z,99600.78
2018-05-14T06:24:31.882Z,99607.27
2018-05-14T06:27:00.230Z,99607.15
2018-05-14T06:29:28.625Z,99608.31
2018-05-14T06:31:56.968Z,99604.68
2018-05-14T06:34:25.308Z,99604.58
2018-05-14T06:36:53.718Z,99608.66
2018-05-14T06:39:22.062Z,99605.13
2018-05-14T06:41:50.510Z,99599.48
2018-05-14T06:44:18.941Z,99599.89
2018-05-14T06:46:47.182Z,99597.13
2018-05-14T06:49:15.535Z,99600.61
2018-05-14T06:51:43.967Z,99590.34
2018-05-14T06:54:12.295Z,99590.24
2018-05-14T06:56:40.611Z,99589.64
2018-05-14T06:59:09.031Z,99598.52
2018-05-14T07:01:37.366Z,99597.23
2018-05-14T07:04:05.815Z,99588.42
2018-05-14T07:06:34.208Z,99593.48
2018-05-14T07:09:02.580Z,99589.53
2018-05-14T07:11:31.050Z,99580.48
2018-05-14T07:13:59.390Z,99581.55
2018-05-14T07:16:27.717Z,99579.06
2018-05-14T07:18:56.283Z,99585.52
2018-05-14T07:21:24.619Z,99584.71
2018-05-14T07:23:53.015Z,99589.73
2018-05-14T07:26:21.458Z,99582.72
2018-05-14T07:28:49.841Z,99583.43
2018-05-14T07:31:18.240Z,99582.75
2018-05-14T07:33:46.581Z,99583.63
2018-05-14T07:36:15.002Z,99592.46
2018-05-14T07:38:43.246Z,99588.06
2018-05-14T07:41:11.607Z,99586.84
2018-05-14T07:43:40.068Z,99585.86
2018-05-14T07:46:13.081Z,99596.84
2018-05-14T07:48:41.391Z,99594.69
2018-05-14T07:51:10.025Z,99601.31
2018-05-14T07:53:38.128Z,99596.78
2018-05-14T07:56:06.451Z,99597.34
2018-05-14T07:58:34.783Z,99608.64
2018-05-14T08:01:03.153Z,99608.18
2018-05-14T08:03:31.501Z,99614.89
2018-05-14T08:05:59.830Z,99618.89
2018-05-14T08:08:28.247Z,99620.72
2018-05-14T08:10:56.658Z,99615.88
2018-05-14T08:13:24.990Z,99621.27
2018-05-14T08:15:53.306Z,99628.37
2018-05-14T08:18:21.687Z,99640.47
2018-05-14T08:20:50.020Z,99638.42
2018-05-14T08:23:18.378Z,99653.59
2018-05-14T08:25:46.719Z,99659.20
2018-05-14T08:28:15.160Z,99661.84
2018-05-14T08:30:43.484Z,99664.03
2018-05-14T08:33:11.796Z,99640.69
2018-05-14T08:35:40.237Z,99650.11
2018-05-14T08:38:08.555Z,99650.00
2018-05-14T08:40:36.880Z,99644.83
2018-05-14T08:43:05.213Z,99649.29
2018-05-14T08:45:33.612Z,99641.91
2018-05-14T08:48:01.947Z,99646.70
2018-05-14T08:50:30.288Z,99646.30
2018-05-14T08:52:58.780Z,99638.51
2018-05-14T08:55:27.216Z,99631.88
2018-05-14T08:57:55.532Z,99637.54
2018-05-14T09:00:23.871Z,99639.30
2018-05-14T09:02:52.428Z,99639.80
2018-05-14T09:05:20.563Z,99635.46
2018-05-14T09:07:48.881Z,99644.49
2018-05-14T09:10:17.226Z,99649.54
2018-05-14T09:12:45.545Z,99643.77
2018-05-14T09:15:13.914Z,99650.37
2018-05-14T09:17:42.284Z,99648.09
2018-05-14T09:20:10.615Z,99641.77
2018-05-14T09:22:38.991Z,99655.23
2018-05-14T09:25:07.376Z,99635.98
2018-05-14T09:27:35.761Z,99654.80
2018-05-14T09:30:04.122Z,99665.71
2018-05-14T09:32:32.439Z,99656.52
2018-05-14T09:35:00.765Z,99662.79
2018-05-14T09:37:29.140Z,99671.74
2018-05-14T09:39:57.524Z,99658.84
2018-05-14T09:42:25.883Z,99660.52
2018-05-14T09:44:54.206Z,99660.27
2018-05-14T09:47:22.611Z,99657.99
2018-05-14T09:49:50.949Z,99676.88
2018-05-14T09:52:19.325Z,99658.14
2018-05-14T09:54:47.637Z,99655.45
2018-05-14T09:57:16.006Z,99665.50
2018-05-14T09:59:44.348Z,99666.40
2018-05-14T10:02:12.683Z,99667.81
2018-05-14T10:04:41.008Z,99668.25
2018-05-14T10:07:09.362Z,99656.84
2018-05-14T10:09:37.707Z,99647.23
2018-05-14T10:12:06.105Z,99662.67
2018-05-14T10:14:34.433Z,99663.41
2018-05-14T10:17:02.778Z,99661.48
2018-05-14T10:19:31.097Z,99661.17
2018-05-14T10:21:59.464Z,99663.41
2018-05-14T10:24:27.877Z,99664.60
2018-05-14T10:26:56.219Z,99653.74
2018-05-14T10:29:24.561Z,99657.13
2018-05-14T10:31:52.972Z,99665.55
2018-05-14T10:34:21.246Z,99672.16
2018-05-14T10:36:49.601Z,99668.67
2018-05-14T10:39:17.927Z,99678.58
2018-05-14T10:41:46.264Z,99677.19
2018-05-14T10:44:14.613Z,99683.55
2018-05-14T10:46:43.051Z,99697.06
2018-05-14T10:49:11.500Z,99683.52
2018-05-14T10:51:39.831Z,99684.22
2018-05-14T10:54:08.165Z,99684.19
2018-05-14T10:56:36.573Z,99688.73
2018-05-14T10:59:04.968Z,99695.27
2018-05-14T11:01:33.296Z,99697.70
2018-05-14T11:04:01.629Z,99701.97
2018-05-14T11:06:29.991Z,99702.70
2018-05-14T11:08:58.358Z,99694.97
2018-05-14T11:11:26.709Z,99701.27
2018-05-14T11:13:55.006Z,99707.56
2018-05-14T11:16:23.402Z,99700.02
2018-05-14T11:18:51.756Z,99705.66
2018-05-14T11:21:20.147Z,99711.86
2018-05-14T11:23:48.462Z,99709.69
2018-05-14T11:26:16.797Z,99696.41
2018-05-14T11:28:45.212Z,99702.20
2018-05-14T11:31:13.725Z,99698.66
2018-05-14T11:33:42.035Z,99700.34
2018-05-14T11:36:10.394Z,99699.15
2018-05-14T11:38:38.770Z,99690.69
2018-05-14T11:41:07.134Z,99700.05
2018-05-14T11:43:35.978Z,99700.51
2018-05-14T11:46:04.431Z,99706.00
2018-05-14T11:48:32.995Z,99709.25
2018-05-14T11:51:01.353Z,99713.52
2018-05-14T11:53:29.684Z,99704.41
2018-05-14T11:55:58.008Z,99699.42
2018-05-14T11:58:26.376Z,99697.64
2018-05-14T12:00:54.793Z,99691.94
2018-05-14T12:03:23.137Z,99693.48
2018-05-14T12:05:51.469Z,99687.30
2018-05-14T12:08:19.857Z,99707.00
2018-05-14T12:10:48.187Z,99688.64
2018-05-14T12:13:16.541Z,99685.44
2018-05-14T12:15:44.858Z,99679.21
2018-05-14T12:18:13.308Z,99680.73
2018-05-14T12:20:41.537Z,99682.45
2018-05-14T12:23:09.908Z,99676.63
2018-05-14T12:25:38.320Z,99682.55
2018-05-14T12:28:06.568Z,99679.77
2018-05-14T12:30:34.941Z,99676.27
2018-05-14T12:33:03.487Z,99668.84
2018-05-14T12:35:31.778Z,99671.11
2018-05-14T12:38:00.147Z,99674.38
2018-05-14T12:40:28.550Z,99669.28
2018-05-14T12:42:56.915Z,99677.55
2018-05-14T12:45:25.238Z,99674.56
2018-05-14T12:47:53.662Z,99678.55
2018-05-14T12:50:22.005Z,99671.53
2018-05-14T12:52:50.407Z,99677.21
2018-05-14T12:55:18.719Z,99681.46
2018-05-14T12:57:47.054Z,99670.79
2018-05-14T13:00:15.420Z,99652.73
2018-05-14T13:02:43.795Z,99659.82
2018-05-14T13:05:12.116Z,99674.73
2018-05-14T13:07:40.658Z,99662.36
2018-05-14T13:10:09.048Z,99663.25
2018-05-14T13:12:37.443Z,99661.88
2018-05-14T13:15:05.774Z,99680.77
2018-05-14T13:17:34.085Z,99663.95
2018-05-14T13:20:02.523Z,99658.41
2018-05-14T13:22:30.923Z,99663.45
2018-05-14T13:24:59.310Z,99660.23
2018-05-14T13:27:27.640Z,99655.38
2018-05-14T13:29:56.287Z,99652.88
2018-05-14T13:32:24.707Z,99643.31
2018-05-14T13:34:53.052Z,99641.36
2018-05-14T13:37:21.518Z,99645.24
2018-05-14T13:39:49.860Z,99643.88
2018-05-14T13:42:18.177Z,99664.02
2018-05-14T13:44:46.513Z,99663.63
2018-05-14T13:47:15.447Z,99669.39
2018-05-14T13:49:43.792Z,99676.56
2018-05-14T13:52:12.122Z,99674.09
2018-05-14T13:54:40.544Z,99670.31
2018-05-14T13:57:08.940Z,99663.98
2018-05-14T13:59:37.329Z,99669.92
2018-05-14T14:02:05.693Z,99655.52
2018-05-14T14:04:34.130Z,99678.03
2018-05-14T14:07:02.477Z,99686.01
2018-05-14T14:09:30.907Z,99672.61
2018-05-14T14:12:00.104Z,99678.05
2018-05-14T14:14:28.412Z,99669.76
2018-05-14T14:16:56.836Z,99664.64
2018-05-14T14:19:25.128Z,99678.53
2018-05-14T14:21:53.496Z,99661.66
2018-05-14T14:24:22.044Z,99671.59
2018-05-14T14:26:50.209Z,99663.88
2018-05-14T14:29:18.592Z,99662.01
2018-05-14T14:31:46.942Z,99664.62
2018-05-14T14:34:15.290Z,99651.39
2018-05-14T14:36:43.742Z,99657.24
2018-05-14T14:39:12.082Z,99652.86
2018-05-14T14:41:40.412Z,99666.56
2018-05-14T14:44:08.803Z,99647.38
2018-05-14T14:46:37.916Z,99655.41
2018-05-14T14:49:06.394Z,99654.38
2018-05-14T14:51:34.725Z,99649.78
2018-05-14T14:54:03.093Z,99645.88
2018-05-14T14:56:31.422Z,99651.98
2018-05-14T14:58:59.759Z,99654.53
2018-05-14T15:01:28.098Z,99629.73
2018-05-14T15:03:56.673Z,99648.58
2018-05-14T15:06:25.052Z,99647.51
2018-05-14T15:08:53.443Z,99661.14
2018-05-14T15:11:21.846Z,99658.62
2018-05-14T15:13:50.168Z,99648.34
2018-05-14T15:16:18.494Z,99644.63
2018-05-14T15:18:46.923Z,99654.38
2018-05-14T15:21:16.199Z,99649.38
2018-05-14T15:23:44.546Z,99642.59
2018-05-14T15:26:12.893Z,99641.30
2018-05-14T15:28:41.230Z,99638.16
2018-05-14T15:31:09.548Z,99650.66
2018-05-14T15:33:38.406Z,99636.91
2018-05-14T15:36:06.777Z,99644.78
2018-05-14T15:38:35.099Z,99650.13
2018-05-14T15:41:03.523Z,99657.44
2018-05-14T15:43:32.050Z,99654.45
2018-05-14T15:46:00.380Z,99656.05
2018-05-14T15:48:28.707Z,99664.20
2018-05-14T15:50:59.128Z,99660.20
2018-05-14T15:53:27.831Z,99663.78
2018-05-14T15:55:56.156Z,99658.87
2018-05-14T15:58:24.488Z,99664.55
2018-05-14T16:00:52.925Z,99671.73
2018-05-14T16:03:21.172Z,99657.03
2018-05-14T16:05:53.856Z,99672.48
2018-05-14T16:08:22.266Z,99656.60
2018-05-14T16:10:51.034Z,99666.41
2018-05-14T16:13:19.469Z,99665.61
2018-05-14T16:15:47.854Z,99662.89
2018-05-14T16:18:16.252Z,99664.44
2018-05-14T16:20:44.663Z,99657.91
2018-05-14T16:23:12.928Z,99664.55
2018-05-14T16:25:41.319Z,99666.91
2018-05-14T16:28:09.702Z,99671.16
2018-05-14T16:30:38.048Z,99663.82
2018-05-14T16:33:06.401Z,99668.22
2018-05-14T16:35:34.727Z,99677.22
2018-05-14T16:38:03.083Z,99679.39
2018-05-14T16:40:31.451Z,99685.84
2018-05-14T16:42:59.785Z,99676.30
2018-05-14T16:45:28.114Z,99677.06
2018-05-14T16:47:56.446Z,99688.34
2018-05-14T16:50:24.888Z,99686.84
2018-05-14T16:52:53.156Z,99688.63
2018-05-14T16:55:21.523Z,99691.36
2018-05-14T16:57:50.031Z,99691.64
2018-05-14T17:00:18.319Z,99699.36
2018-05-14T17:02:46.675Z,99696.41
2018-05-14T17:05:15.100Z,99714.28
2018-05-14T17:07:43.495Z,99713.28
2018-05-14T17:10:11.809Z,99702.10
2018-05-14T17:12:40.137Z,99701.36
2018-05-14T17:15:08.561Z,99711.90
2018-05-14T17:17:36.892Z,99708.00
2018-05-14T17:20:05.246Z,99707.50
2018-05-14T17:22:33.622Z,99711.00
2018-05-14T17:25:02.033Z,99720.20
2018-05-14T17:27:30.367Z,99719.72
2018-05-14T17:29:58.698Z,99702.70
2018-05-14T17:32:27.003Z,99712.12
2018-05-14T17:34:55.434Z,99715.94
2018-05-14T17:37:23.792Z,99717.02
2018-05-14T17:39:52.128Z,99713.53
2018-05-14T17:42:20.471Z,99723.67
2018-05-14T17:44:49.009Z,99718.63
2018-05-14T17:47:17.323Z,99728.61
2018-05-14T17:49:45.757Z,99730.41
2018-05-14T17:52:14.090Z,99735.77
2018-05-14T17:54:42.422Z,99730.04
2018-05-14T17:57:10.740Z,99726.24
2018-05-14T17:59:39.125Z,99732.37
2018-05-14T18:02:07.432Z,99733.30
2018-05-14T18:04:35.745Z,99729.83
2018-05-14T18:07:04.112Z,99730.91
2018-05-14T18:09:32.504Z,99739.56
2018-05-14T18:12:00.902Z,99744.96
2018-05-14T18:14:29.387Z,99735.34
2018-05-14T18:16:57.787Z,99748.50
2018-05-14T18:19:26.102Z,99749.70
2018-05-14T18:22:00.045Z,99749.47
2018-05-14T18:24:28.478Z,99756.25
2018-05-14T18:26:56.797Z,99761.91
2018-05-14T18:29:31.657Z,99761.12
2018-05-14T18:32:04.775Z,99763.72
2018-05-14T18:34:39.687Z,99763.81
2018-05-14T18:37:08.053Z,99758.64
2018-05-14T18:39:36.372Z,99767.56
2018-05-14T18:42:04.703Z,99770.80
2018-05-14T18:44:33.970Z,99767.91
2018-05-14T18:47:02.377Z,99781.95
2018-05-14T18:49:30.722Z,99779.97
2018-05-14T18:51:59.141Z,99781.20
2018-05-14T18:54:27.528Z,99775.36
2018-05-14T18:56:55.839Z,99787.99
2018-05-14T18:59:24.212Z,99784.20
2018-05-14T19:01:52.606Z,99795.59
2018-05-14T19:04:21.015Z,99792.30
2018-05-14T19:06:49.391Z,99804.86
2018-05-14T19:09:17.744Z,99803.16
2018-05-14T19:11:50.923Z,99807.81
2018-05-14T19:14:19.259Z,99808.39
2018-05-14T19:16:53.262Z,99806.80
2018-05-14T19:19:21.661Z,99811.42
2018-05-14T19:21:49.983Z,99813.64
2018-05-14T19:24:18.839Z,99827.41
2018-05-14T19:26:47.202Z,99823.97
2018-05-14T19:29:21.271Z,99822.92
2018-05-14T19:31:49.605Z,99831.46
2018-05-14T19:34:23.535Z,99826.33
2018-05-14T19:36:51.933Z,99827.90
2018-05-14T19:39:25.835Z,99830.41
2018-05-14T19:41:54.157Z,99831.73
2018-05-14T19:44:22.628Z,99835.38
2018-05-14T19:46:50.963Z,99829.91
2018-05-14T19:49:19.343Z,99838.22
2018-05-14T19:51:47.704Z,99837.88
2018-05-14T19:54:16.034Z,99842.34
2018-05-14T19:56:44.379Z,99840.06
2018-05-14T19:59:12.780Z,99842.97
2018-05-14T20:01:41.177Z,99843.91
2018-05-14T20:04:09.660Z,99835.53
2018-05-14T20:06:37.997Z,99841.22
2018-05-14T20:09:06.349Z,99841.14
2018-05-14T20:11:34.666Z,99847.13
2018-05-14T20:14:03.071Z,99848.48
2018-05-14T20:16:31.373Z,99851.84
2018-05-14T20:18:59.692Z,99847.29
2018-05-14T20:21:28.031Z,99852.18
2018-05-14T20:23:56.611Z,99849.11
2018-05-14T20:26:24.990Z,99850.64
2018-05-14T20:28:53.394Z,99857.06
2018-05-14T20:31:21.881Z,99859.30
2018-05-14T20:33:50.151Z,99861.05
2018-05-14T20:36:18.580Z,99860.83
2018-05-14T20:38:46.905Z,99864.44
2018-05-14T20:41:15.269Z,99864.53
2018-05-14T20:43:43.624Z,99873.31
2018-05-14T20:46:12.042Z,99872.26
2018-05-14T20:48:40.425Z,99874.25
2018-05-14T20:51:08.767Z,99868.43
2018-05-14T20:53:37.120Z,99876.02
2018-05-14T20:56:05.420Z,99875.25
2018-05-14T20:58:33.784Z,99871.91
2018-05-14T21:01:02.115Z,99875.92
2018-05-14T21:03:30.472Z,99873.45
2018-05-14T21:05:58.818Z,99877.72
2018-05-14T21:08:27.386Z,99879.98
2018-05-14T21:10:56.756Z,99887.91
2018-05-14T21:13:25.138Z,99883.28
2018-05-14T21:15:53.463Z,99886.45
2018-05-14T21:18:21.840Z,99876.25
2018-05-14T21:20:50.251Z,99881.78
2018-05-14T21:23:18.645Z,99885.59
2018-05-14T21:25:46.989Z,99888.49
2018-05-14T21:28:15.312Z,99887.16
2018-05-14T21:30:43.818Z,99896.25
2018-05-14T21:33:12.221Z,99894.31
2018-05-14T21:35:40.528Z,99896.46
2018-05-14T21:38:14.604Z,99894.25
2018-05-14T21:40:43.510Z,99888.40
2018-05-14T21:43:12.180Z,99892.13
2018-05-14T21:45:40.525Z,99890.72
2018-05-14T21:48:08.912Z,99889.59
2018-05-14T21:50:37.259Z,99894.58
2018-05-14T21:53:12.354Z,99891.23
2018-05-14T21:55:40.738Z,99896.16
2018-05-14T21:58:09.068Z,99898.88
2018-05-14T22:00:37.427Z,99901.61
2018-05-14T22:03:05.848Z,99908.20
2018-05-14T22:05:34.236Z,99908.59
2018-05-14T22:08:02.596Z,99907.25
2018-05-14T22:10:30.923Z,99912.52
2018-05-14T22:12:59.243Z,99905.38
2018-05-14T22:15:27.565Z,99909.37
2018-05-14T22:17:56.007Z,99902.58
2018-05-14T22:20:24.379Z,99901.37
2018-05-14T22:22:52.716Z,99903.59
2018-05-14T22:25:21.052Z,99903.52
2018-05-14T22:27:49.381Z,99900.97
2018-05-14T22:30:17.744Z,99910.27
2018-05-14T22:32:46.071Z,99907.94
2018-05-14T22:35:14.394Z,99906.81
2018-05-14T22:37:42.726Z,99905.82
2018-05-14T22:40:11.119Z,99905.23
2018-05-14T22:42:39.584Z,99906.88
2018-05-14T22:45:07.993Z,99901.07
2018-05-14T22:47:36.342Z,99901.14
2018-05-14T22:50:04.671Z,99908.55
2018-05-14T22:52:33.022Z,99913.64
2018-05-14T22:55:01.323Z,99905.95
2018-05-14T22:57:29.668Z,99910.98
2018-05-14T22:59:57.994Z,99909.08
2018-05-14T23:02:26.359Z,99903.46
2018-05-14T23:04:54.744Z,99904.61
2018-05-14T23:07:23.079Z,99910.80
2018-05-14T23:09:51.395Z,99916.28
2018-05-14T23:12:19.813Z,99914.05
2018-05-14T23:14:48.204Z,99915.91
2018-05-14T23:19:55.665Z,99922.51
2018-05-14T23:22:43.878Z,99920.56
2018-05-14T23:25:12.231Z,99918.22
2018-05-14T23:27:40.560Z,99918.08
2018-05-14T23:30:09.002Z,99912.75
2018-05-14T23:32:37.464Z,99918.76
2018-05-14T23:35:05.860Z,99917.92
2018-05-14T23:37:34.195Z,99915.73
2018-05-14T23:40:02.550Z,99903.02
2018-05-14T23:42:30.887Z,99908.08
2018-05-14T23:44:59.231Z,99900.58
2018-05-14T23:47:27.623Z,99902.24
2018-05-14T23:49:55.970Z,99892.42
2018-05-14T23:52:24.286Z,99895.17
2018-05-14T23:54:52.696Z,99895.47
2018-05-14T23:57:21.005Z,99887.73
2018-05-14T23:59:49.379Z,99892.82
